Time;durP1;ratioP1;P1;durP2;ratioP2;P2;SDS_P1;SDS_P2;PMS_P1;PMS_P2;Temp;Humidity;BMP_temperature;BMP_pressure;BME280_temperature;BME280_humidity;BME280_pressure;Samples;Min_cycle;Max_cycle;Signal;HPM_P1;HPM_P2
2020/12/29 00:02:09;;;;;;;31.15;19.60;;;5.50;99.90;;;;;;4975678;28;20062;-88
2020/12/29 00:04:35;;;;;;;27.67;18.35;;;5.50;99.90;;;;;;4942377;28;20039;-85
2020/12/29 00:07:00;;;;;;;27.42;19.13;;;5.50;99.90;;;;;;4941654;28;20043;-86
2020/12/29 00:09:27;;;;;;;35.33;21.35;;;5.40;99.90;;;;;;4941922;28;20035;-86
2020/12/29 00:11:54;;;;;;;27.10;18.92;;;5.40;99.90;;;;;;4957889;28;20532;-86
2020/12/29 00:14:20;;;;;;;28.17;19.65;;;5.30;99.90;;;;;;4942170;28;20031;-85
2020/12/29 00:16:47;;;;;;;29.92;19.80;;;5.20;99.90;;;;;;4959345;28;20026;-85
2020/12/29 00:19:15;;;;;;;28.60;18.33;;;5.10;99.90;;;;;;4963679;28;20114;-87
2020/12/29 00:21:41;;;;;;;24.67;16.90;;;5.10;99.90;;;;;;4957590;28;20027;-86
2020/12/29 00:24:08;;;;;;;34.17;20.08;;;5.10;99.90;;;;;;4958122;28;20079;-87
2020/12/29 00:26:34;;;;;;;28.50;18.27;;;4.90;99.90;;;;;;4957325;28;20038;-86
2020/12/29 00:29:00;;;;;;;28.00;18.48;;;4.80;99.90;;;;;;4974891;28;20030;-86
2020/12/29 00:31:27;;;;;;;25.55;16.27;;;4.80;99.90;;;;;;4957281;28;20094;-85
2020/12/29 00:33:58;;;;;;;25.90;16.35;;;4.90;99.90;;;;;;4956870;28;20524;-87
2020/12/29 00:36:24;;;;;;;25.83;17.30;;;5.10;99.90;;;;;;4957894;28;20603;-85
2020/12/29 00:38:51;;;;;;;24.58;16.77;;;5.00;99.90;;;;;;4941808;28;20062;-86
2020/12/29 00:41:17;;;;;;;29.73;18.42;;;4.90;99.90;;;;;;4957731;28;20042;-86
2020/12/29 00:43:43;;;;;;;31.90;19.73;;;5.10;99.90;;;;;;4957651;28;20027;-85
2020/12/29 00:46:10;;;;;;;36.78;23.38;;;5.10;99.90;;;;;;4957716;28;20472;-86
2020/12/29 00:48:36;;;;;;;36.80;23.02;;;5.10;99.90;;;;;;4943361;28;20163;-86
2020/12/29 00:51:10;;;;;;;33.38;22.40;;;5.20;99.90;;;;;;4945073;28;20146;-86
2020/12/29 00:53:36;;;;;;;37.60;21.13;;;5.20;99.90;;;;;;4960094;28;20074;-86
2020/12/29 00:56:04;;;;;;;34.20;22.10;;;5.10;99.90;;;;;;4942060;28;20066;-85
2020/12/29 00:58:30;;;;;;;32.35;21.10;;;5.10;99.90;;;;;;4957537;28;20038;-85
2020/12/29 01:00:55;;;;;;;28.73;19.23;;;5.00;99.90;;;;;;4941712;28;20457;-86
2020/12/29 01:03:21;;;;;;;26.20;18.90;;;4.90;99.90;;;;;;4941737;28;20405;-86
2020/12/29 01:05:47;;;;;;;29.15;18.98;;;4.90;99.90;;;;;;4941973;28;20125;-86
2020/12/29 01:08:13;;;;;;;25.98;17.33;;;5.00;99.90;;;;;;4957134;28;20130;-86
2020/12/29 01:10:40;;;;;;;29.92;18.83;;;5.00;99.90;;;;;;4992230;28;20046;-83
2020/12/29 01:13:07;;;;;;;32.47;18.77;;;5.00;99.90;;;;;;4987812;28;20051;-84
2020/12/29 01:15:33;;;;;;;31.35;19.60;;;5.00;99.90;;;;;;4942821;28;20035;-85
2020/12/29 01:17:59;;;;;;;34.67;21.40;;;5.10;99.90;;;;;;4957887;28;20133;-85
2020/12/29 01:20:25;;;;;;;32.75;20.98;;;5.10;99.90;;;;;;4941237;28;20166;-86
2020/12/29 01:22:54;;;;;;;30.05;21.05;;;5.00;99.90;;;;;;4941228;28;20512;-86
2020/12/29 01:25:21;;;;;;;36.67;22.70;;;4.90;99.90;;;;;;4941048;28;20062;-86
2020/12/29 01:27:47;;;;;;;32.53;21.88;;;4.90;99.90;;;;;;4941386;28;20043;-86
2020/12/29 01:30:13;;;;;;;40.20;24.50;;;4.90;99.90;;;;;;4957542;28;20539;-86
2020/12/29 01:32:39;;;;;;;35.83;22.60;;;4.90;99.90;;;;;;4957751;28;20031;-85
2020/12/29 01:35:06;;;;;;;37.47;23.92;;;4.90;99.90;;;;;;4958841;28;20035;-86
2020/12/29 01:37:36;;;;;;;37.72;23.67;;;4.90;99.90;;;;;;4957947;28;20473;-86
2020/12/29 01:40:03;;;;;;;41.75;25.75;;;4.90;99.90;;;;;;4958285;28;20062;-86
2020/12/29 01:42:29;;;;;;;39.90;24.48;;;4.90;99.90;;;;;;4941870;28;20030;-86
2020/12/29 01:44:54;;;;;;;39.00;23.48;;;4.80;99.90;;;;;;4957331;28;20508;-86
2020/12/29 01:47:21;;;;;;;45.95;25.58;;;4.80;99.90;;;;;;4976926;28;20035;-86
2020/12/29 01:49:48;;;;;;;37.83;25.85;;;4.80;99.90;;;;;;4944949;28;20039;-86
2020/12/29 01:52:14;;;;;;;42.97;27.08;;;4.80;99.90;;;;;;4960514;28;20388;-86
2020/12/29 01:54:40;;;;;;;38.53;25.40;;;4.80;99.90;;;;;;4928367;28;20117;-85
2020/12/29 01:57:07;;;;;;;44.92;28.65;;;4.70;99.90;;;;;;4944142;28;20085;-86
2020/12/29 01:59:34;;;;;;;38.72;24.75;;;4.70;99.90;;;;;;4959599;28;20477;-86
2020/12/29 02:02:00;;;;;;;42.67;26.23;;;4.70;99.90;;;;;;4944375;28;20134;-86
2020/12/29 02:04:26;;;;;;;42.65;26.92;;;4.70;99.90;;;;;;4960060;28;20027;-86
2020/12/29 02:06:52;;;;;;;51.53;29.52;;;4.70;99.90;;;;;;4944076;28;20035;-86
2020/12/29 02:09:18;;;;;;;47.40;28.45;;;4.70;99.90;;;;;;4960210;28;20101;-86
2020/12/29 02:11:43;;;;;;;50.67;32.03;;;4.60;99.90;;;;;;4943674;28;20034;-86
2020/12/29 02:14:09;;;;;;;49.38;30.45;;;4.50;99.90;;;;;;4943808;28;20034;-86
2020/12/29 02:16:39;;;;;;;46.85;29.52;;;4.70;99.90;;;;;;4943850;28;20034;-86
2020/12/29 02:19:09;;;;;;;42.17;27.77;;;4.70;99.90;;;;;;4960020;28;20497;-87
2020/12/29 02:21:35;;;;;;;48.97;29.90;;;4.80;99.90;;;;;;4943530;28;20093;-86
2020/12/29 02:24:03;;;;;;;41.58;26.02;;;4.80;99.90;;;;;;4944174;28;20093;-86
2020/12/29 02:26:31;;;;;;;47.05;29.48;;;4.80;99.90;;;;;;4959741;28;20401;-87
2020/12/29 02:29:06;;;;;;;35.78;23.70;;;4.80;99.90;;;;;;4959490;28;20082;-86
2020/12/29 02:31:33;;;;;;;35.13;23.52;;;4.90;99.90;;;;;;4959923;28;20031;-85
2020/12/29 02:33:59;;;;;;;34.33;22.52;;;4.90;99.90;;;;;;4943519;28;20043;-85
2020/12/29 02:36:24;;;;;;;33.38;23.20;;;4.90;99.90;;;;;;4959490;28;20038;-86
2020/12/29 02:38:50;;;;;;;42.92;26.15;;;4.80;99.90;;;;;;4959343;28;20043;-85
2020/12/29 02:41:17;;;;;;;37.92;24.30;;;4.80;99.90;;;;;;4959340;28;20405;-85
2020/12/29 02:43:44;;;;;;;35.60;23.70;;;4.80;99.90;;;;;;4959395;28;20788;-86
2020/12/29 02:46:12;;;;;;;34.70;23.13;;;4.80;99.90;;;;;;4943503;28;20062;-86
2020/12/29 02:48:38;;;;;;;35.95;22.83;;;4.90;99.90;;;;;;4959259;28;20041;-86
2020/12/29 02:51:04;;;;;;;36.10;22.15;;;4.80;99.90;;;;;;4943331;28;20027;-85
2020/12/29 02:53:29;;;;;;;48.60;30.25;;;4.70;99.90;;;;;;4943046;28;20034;-85
2020/12/29 02:55:55;;;;;;;44.83;26.80;;;4.70;99.90;;;;;;4927720;28;20031;-86
2020/12/29 02:58:20;;;;;;;42.70;26.38;;;4.80;99.90;;;;;;4959002;28;20548;-85
2020/12/29 03:00:46;;;;;;;38.88;24.92;;;4.80;99.90;;;;;;4959250;28;20038;-85
2020/12/29 03:03:12;;;;;;;40.35;26.95;;;4.80;99.90;;;;;;4943592;28;20342;-86
2020/12/29 03:05:37;;;;;;;45.08;27.55;;;4.80;99.90;;;;;;4945981;28;20027;-86
2020/12/29 03:08:03;;;;;;;43.15;27.33;;;4.80;99.90;;;;;;4945528;28;20034;-86
2020/12/29 03:10:28;;;;;;;40.75;27.55;;;4.80;99.90;;;;;;4944738;28;20027;-86
2020/12/29 03:12:54;;;;;;;50.75;31.77;;;4.70;99.90;;;;;;4959000;28;20425;-86
2020/12/29 03:15:19;;;;;;;39.38;26.85;;;4.80;99.90;;;;;;4942917;28;20058;-87
2020/12/29 03:17:45;;;;;;;40.83;26.85;;;4.80;99.90;;;;;;4976067;28;20165;-85
2020/12/29 03:20:11;;;;;;;39.25;25.52;;;4.90;99.90;;;;;;4942829;28;20519;-86
2020/12/29 03:22:36;;;;;;;41.47;27.30;;;4.90;99.90;;;;;;4975963;28;20495;-86
2020/12/29 03:25:02;;;;;;;39.67;26.70;;;5.00;99.90;;;;;;4942852;28;20035;-85
2020/12/29 03:27:28;;;;;;;47.75;29.90;;;4.90;99.90;;;;;;4958814;28;20038;-87
2020/12/29 03:29:55;;;;;;;43.40;26.05;;;4.90;99.90;;;;;;4942893;28;20033;-86
2020/12/29 03:32:20;;;;;;;39.28;24.85;;;4.90;99.90;;;;;;4942778;28;20038;-86
2020/12/29 03:34:46;;;;;;;35.75;23.58;;;4.80;99.90;;;;;;4943112;28;20390;-86
2020/12/29 03:37:12;;;;;;;44.92;25.05;;;4.80;99.90;;;;;;4942629;28;20066;-86
2020/12/29 03:39:38;;;;;;;39.13;26.05;;;4.80;99.90;;;;;;4926852;28;20425;-86
2020/12/29 03:42:06;;;;;;;42.97;27.30;;;4.80;99.90;;;;;;4926977;28;20057;-86
2020/12/29 03:44:33;;;;;;;46.13;28.98;;;4.80;99.90;;;;;;4942521;28;20034;-86
2020/12/29 03:46:59;;;;;;;49.13;28.58;;;4.80;99.90;;;;;;4993868;28;20010;-85
2020/12/29 03:49:25;;;;;;;42.00;27.13;;;4.80;99.90;;;;;;4958511;28;20133;-85
2020/12/29 03:51:50;;;;;;;46.63;28.92;;;4.80;99.90;;;;;;4943967;28;20477;-86
2020/12/29 03:54:16;;;;;;;44.00;27.35;;;4.80;99.90;;;;;;4959455;28;20039;-86
2020/12/29 03:56:41;;;;;;;44.58;28.17;;;4.80;99.90;;;;;;4942084;28;20034;-86
2020/12/29 03:59:07;;;;;;;43.95;27.48;;;4.90;99.90;;;;;;4975361;28;20065;-86
2020/12/29 04:01:33;;;;;;;47.67;31.20;;;4.90;99.90;;;;;;4942176;28;20041;-87
2020/12/29 04:03:58;;;;;;;54.50;31.65;;;4.80;99.90;;;;;;4960553;28;20323;-85
2020/12/29 04:06:24;;;;;;;39.15;25.52;;;4.70;99.90;;;;;;4942884;28;20404;-86
2020/12/29 04:08:50;;;;;;;47.50;27.65;;;4.70;99.90;;;;;;4941170;28;20038;-86
2020/12/29 04:11:16;;;;;;;40.75;24.20;;;4.70;99.90;;;;;;4958226;28;20157;-86
2020/12/29 04:13:41;;;;;;;41.50;25.40;;;4.70;99.90;;;;;;4957658;28;20519;-86
2020/12/29 04:16:08;;;;;;;40.30;24.48;;;4.70;99.90;;;;;;4957714;28;20114;-85
2020/12/29 04:18:33;;;;;;;35.15;22.27;;;4.80;99.90;;;;;;4957577;28;20034;-87
2020/12/29 04:20:59;;;;;;;31.40;19.25;;;4.70;99.90;;;;;;4957881;28;20465;-85
2020/12/29 04:23:24;;;;;;;26.50;18.20;;;4.70;99.90;;;;;;4957353;28;20039;-87
2020/12/29 04:25:50;;;;;;;25.52;17.15;;;4.70;99.90;;;;;;4957291;28;20034;-85
2020/12/29 04:28:16;;;;;;;25.95;15.13;;;4.60;99.90;;;;;;4957714;28;20042;-85
2020/12/29 04:30:41;;;;;;;26.38;17.30;;;4.50;99.90;;;;;;4941302;28;20121;-85
2020/12/29 04:33:07;;;;;;;21.73;12.55;;;4.50;99.90;;;;;;4941918;28;20081;-85
2020/12/29 04:35:33;;;;;;;19.02;12.55;;;4.50;99.90;;;;;;4941923;28;20030;-86
2020/12/29 04:37:59;;;;;;;18.83;12.07;;;4.60;99.90;;;;;;4957058;28;20528;-86
2020/12/29 04:40:24;;;;;;;22.65;12.65;;;4.60;99.90;;;;;;4957499;28;20057;-86
2020/12/29 04:42:52;;;;;;;20.67;13.07;;;4.60;99.90;;;;;;4941511;28;20100;-86
2020/12/29 04:45:19;;;;;;;21.52;12.38;;;4.70;99.90;;;;;;4957819;28;20031;-86
2020/12/29 04:47:45;;;;;;;19.80;11.73;;;4.70;99.90;;;;;;4956985;28;20047;-86
2020/12/29 04:50:13;;;;;;;21.30;13.15;;;4.70;99.90;;;;;;4941683;28;20473;-85
2020/12/29 04:52:43;;;;;;;21.25;11.95;;;4.80;99.90;;;;;;4974300;28;20477;-85
2020/12/29 04:55:10;;;;;;;21.25;13.32;;;4.70;99.90;;;;;;4957550;28;20572;-86
2020/12/29 04:57:43;;;;;;;14.98;9.98;;;4.70;99.90;;;;;;4942890;28;20027;-84
2020/12/29 05:00:08;;;;;;;21.02;12.52;;;4.80;99.90;;;;;;4978577;28;20030;-86
2020/12/29 05:02:34;;;;;;;18.02;11.00;;;4.80;99.90;;;;;;4961191;28;20436;-84
2020/12/29 05:05:05;;;;;;;17.17;10.65;;;4.90;99.90;;;;;;4944317;28;20085;-85
2020/12/29 05:07:31;;;;;;;19.13;11.57;;;4.90;99.90;;;;;;4945823;28;20039;-85
2020/12/29 05:10:06;;;;;;;16.73;10.07;;;4.90;99.90;;;;;;4925464;28;20033;-84
2020/12/29 05:12:32;;;;;;;16.70;11.20;;;5.00;99.90;;;;;;4956884;28;20054;-87
2020/12/29 05:14:58;;;;;;;16.90;9.48;;;5.10;99.90;;;;;;4957157;28;20050;-86
2020/12/29 05:17:23;;;;;;;16.98;9.15;;;5.10;99.90;;;;;;4940914;28;20037;-85
2020/12/29 05:19:50;;;;;;;15.57;9.38;;;5.20;99.90;;;;;;4942040;28;20039;-86
2020/12/29 05:22:20;;;;;;;14.65;8.73;;;5.20;99.90;;;;;;4963119;28;20027;-85
2020/12/29 05:24:47;;;;;;;11.82;8.48;;;5.10;99.90;;;;;;4980661;28;20037;-86
2020/12/29 05:27:12;;;;;;;16.30;10.13;;;5.20;99.90;;;;;;4961504;28;20448;-86
2020/12/29 05:29:39;;;;;;;15.07;9.05;;;5.30;99.90;;;;;;4945035;28;20031;-85
2020/12/29 05:32:04;;;;;;;13.98;9.25;;;5.40;99.90;;;;;;4960741;28;20035;-87
2020/12/29 05:34:30;;;;;;;13.82;8.80;;;5.40;99.90;;;;;;4945134;28;20031;-85
2020/12/29 05:36:59;;;;;;;16.73;8.25;;;5.40;99.90;;;;;;4944305;28;20027;-84
2020/12/29 05:39:27;;;;;;;11.38;7.47;;;5.50;99.90;;;;;;4978142;28;20089;-85
2020/12/29 05:41:55;;;;;;;10.98;7.45;;;5.50;99.90;;;;;;4960626;28;20181;-86
2020/12/29 05:44:29;;;;;;;11.60;7.93;;;5.60;99.90;;;;;;4977828;28;20157;-85
2020/12/29 05:46:57;;;;;;;10.37;7.00;;;5.60;99.90;;;;;;4960274;28;20031;-85
2020/12/29 05:49:24;;;;;;;10.25;6.35;;;5.60;99.90;;;;;;4960783;28;20266;-86
2020/12/29 05:51:52;;;;;;;9.25;6.55;;;5.70;99.90;;;;;;4977867;28;20031;-85
2020/12/29 05:54:19;;;;;;;10.00;6.05;;;5.70;99.90;;;;;;4977922;28;20031;-85
2020/12/29 05:56:46;;;;;;;12.30;6.90;;;5.70;99.90;;;;;;4977814;28;20038;-86
2020/12/29 05:59:13;;;;;;;10.75;6.50;;;5.70;99.90;;;;;;4960267;28;20507;-85
2020/12/29 06:01:40;;;;;;;9.13;6.00;;;5.70;99.90;;;;;;4977979;28;20035;-85
2020/12/29 06:04:06;;;;;;;9.18;6.05;;;5.70;99.90;;;;;;4977650;28;20022;-85
2020/12/29 06:06:33;;;;;;;10.35;6.57;;;5.80;99.90;;;;;;4976453;28;20433;-85
2020/12/29 06:09:06;;;;;;;12.57;6.45;;;5.70;99.90;;;;;;4960612;28;20131;-85
2020/12/29 06:11:49;;;;;;;8.93;6.63;;;5.80;99.90;;;;;;4960017;28;20054;-85
2020/12/29 06:14:20;;;;;;;11.27;6.38;;;5.90;99.90;;;;;;4960712;28;20034;-85
2020/12/29 06:16:46;;;;;;;10.40;6.47;;;5.90;99.90;;;;;;4960236;28;20499;-87
2020/12/29 06:19:27;;;;;;;12.35;7.15;;;5.90;99.90;;;;;;4960536;28;20125;-85
2020/12/29 06:22:13;;;;;;;12.18;7.43;;;5.70;99.90;;;;;;4962891;28;20034;-85
2020/12/29 06:24:42;;;;;;;14.00;8.70;;;5.60;99.90;;;;;;5001341;28;20015;-85
2020/12/29 06:27:09;;;;;;;11.80;8.13;;;5.60;99.90;;;;;;4980429;28;20077;-86
2020/12/29 06:29:43;;;;;;;11.75;8.00;;;5.70;99.90;;;;;;4962572;28;20027;-85
2020/12/29 06:32:14;;;;;;;10.50;7.25;;;5.80;99.90;;;;;;4943323;28;20037;-86
2020/12/29 06:34:41;;;;;;;11.45;7.15;;;5.80;99.90;;;;;;4960860;28;20031;-86
2020/12/29 06:37:26;;;;;;;10.32;6.95;;;5.80;99.90;;;;;;4978420;28;20030;-86
2020/12/29 06:40:02;;;;;;;13.00;8.02;;;5.70;99.90;;;;;;4959715;28;20030;-86
2020/12/29 06:42:28;;;;;;;12.57;7.10;;;5.70;99.90;;;;;;4959925;28;20068;-86
2020/12/29 06:44:58;;;;;;;11.02;7.40;;;5.70;99.90;;;;;;4959370;28;20054;-85
2020/12/29 06:47:25;;;;;;;11.07;7.03;;;5.80;99.90;;;;;;4975940;28;20045;-86
2020/12/29 06:49:52;;;;;;;13.32;8.75;;;5.60;99.90;;;;;;4943635;28;20038;-86
2020/12/29 06:52:23;;;;;;;14.02;8.77;;;5.70;99.90;;;;;;4959960;28;20058;-85
2020/12/29 06:54:57;;;;;;;15.43;9.00;;;5.70;99.90;;;;;;4976608;28;20027;-93
2020/12/29 06:57:52;;;;;;;11.38;7.15;;;5.70;99.90;;;;;;4959785;28;20054;-85
2020/12/29 07:00:19;;;;;;;13.00;8.23;;;5.60;99.90;;;;;;4959536;28;20062;-85
2020/12/29 07:02:47;;;;;;;10.50;8.10;;;5.70;99.90;;;;;;4959693;28;20039;-85
2020/12/29 07:05:14;;;;;;;11.82;8.65;;;5.80;99.90;;;;;;4976934;28;20031;-86
2020/12/29 07:07:56;;;;;;;12.80;8.93;;;5.80;99.90;;;;;;4959470;28;20043;-86
2020/12/29 07:10:38;;;;;;;11.25;7.82;;;5.70;99.90;;;;;;4975548;28;20089;-85
2020/12/29 07:13:06;;;;;;;9.75;7.97;;;5.80;99.90;;;;;;4976236;28;20134;-85
2020/12/29 07:15:43;;;;;;;12.40;8.13;;;5.70;99.90;;;;;;4959723;28;20384;-86
2020/12/29 07:18:09;;;;;;;10.85;7.47;;;5.80;99.90;;;;;;4944500;28;20031;-87
2020/12/29 07:20:35;;;;;;;12.77;9.95;;;5.80;99.90;;;;;;4976557;28;20045;-86
2020/12/29 07:23:06;;;;;;;13.27;7.57;;;5.80;99.90;;;;;;4943293;28;20054;-86
2020/12/29 07:25:33;;;;;;;12.98;8.70;;;5.70;99.90;;;;;;4959071;28;20094;-85
2020/12/29 07:28:02;;;;;;;13.63;9.48;;;5.50;99.90;;;;;;4959207;28;20444;-84
2020/12/29 07:30:29;;;;;;;11.15;7.82;;;5.40;99.90;;;;;;4959239;28;20488;-85
2020/12/29 07:32:58;;;;;;;12.70;9.07;;;5.40;99.90;;;;;;4977266;28;20066;-88
2020/12/29 07:35:27;;;;;;;14.65;7.97;;;5.40;99.90;;;;;;4943974;28;20157;-85
2020/12/29 07:37:56;;;;;;;11.05;7.32;;;5.50;99.90;;;;;;4961706;28;20093;-85
2020/12/29 07:40:22;;;;;;;11.43;8.05;;;5.60;99.90;;;;;;4961131;28;20027;-86
2020/12/29 07:42:48;;;;;;;9.68;6.88;;;5.60;99.90;;;;;;4941888;28;20054;-86
2020/12/29 07:45:14;;;;;;;10.57;7.50;;;5.60;99.90;;;;;;4941633;28;20129;-86
2020/12/29 07:47:40;;;;;;;13.10;7.97;;;5.60;99.90;;;;;;4958728;28;20038;-87
2020/12/29 07:50:06;;;;;;;10.57;7.68;;;5.60;99.90;;;;;;4962615;28;20149;-85
2020/12/29 07:52:32;;;;;;;9.48;7.38;;;5.50;99.90;;;;;;4963253;28;20086;-88
2020/12/29 07:55:09;;;;;;;11.40;7.57;;;5.40;99.90;;;;;;4958839;28;20027;-87
2020/12/29 07:57:35;;;;;;;18.75;9.55;;;5.40;99.90;;;;;;4981874;28;20031;-88
2020/12/29 08:00:11;;;;;;;13.48;7.78;;;5.30;99.90;;;;;;4943676;28;20034;-88
2020/12/29 08:02:36;;;;;;;11.18;7.55;;;5.30;99.90;;;;;;4959078;28;20023;-89
2020/12/29 08:05:04;;;;;;;12.88;7.57;;;5.30;99.90;;;;;;4958914;28;20054;-89
2020/12/29 08:07:29;;;;;;;10.60;7.40;;;5.30;99.90;;;;;;4943237;28;20043;-89
2020/12/29 08:09:58;;;;;;;11.38;8.05;;;5.30;99.90;;;;;;4959059;28;20045;-89
2020/12/29 08:12:24;;;;;;;10.52;7.35;;;5.30;99.90;;;;;;4942546;28;20145;-88
2020/12/29 08:14:50;;;;;;;10.32;7.45;;;5.30;99.90;;;;;;4931622;29;20152;-88
2020/12/29 08:17:15;;;;;;;11.57;7.07;;;5.30;99.90;;;;;;4923421;29;20079;-88
2020/12/29 08:19:41;;;;;;;10.10;7.22;;;5.20;99.90;;;;;;4923902;29;20027;-88
2020/12/29 08:22:09;;;;;;;9.77;7.10;;;5.20;99.90;;;;;;4923127;29;20421;-88
2020/12/29 08:24:35;;;;;;;8.77;6.25;;;5.20;99.90;;;;;;4939429;29;20070;-86
2020/12/29 08:27:01;;;;;;;12.15;7.35;;;5.10;99.90;;;;;;4922922;29;20039;-89
2020/12/29 08:29:30;;;;;;;10.30;7.20;;;5.20;99.90;;;;;;4922992;29;20031;-87
2020/12/29 08:32:10;;;;;;;10.68;7.30;;;5.10;99.90;;;;;;4939148;29;20046;-87
2020/12/29 08:34:39;;;;;;;11.13;6.63;;;5.10;99.90;;;;;;4939313;29;20027;-86
2020/12/29 08:37:06;;;;;;;10.45;7.53;;;5.10;99.90;;;;;;4956843;29;20026;-88
2020/12/29 08:39:41;;;;;;;10.73;6.90;;;5.10;99.90;;;;;;4939141;29;20031;-88
2020/12/29 08:42:11;;;;;;;10.43;7.38;;;5.10;99.90;;;;;;4938867;29;20038;-86
2020/12/29 08:44:43;;;;;;;13.98;9.30;;;5.20;99.90;;;;;;4938951;29;20031;-87
2020/12/29 08:47:10;;;;;;;17.70;10.10;;;4.90;99.90;;;;;;4923051;29;20031;-86
2020/12/29 08:49:36;;;;;;;12.55;9.32;;;5.10;99.90;;;;;;4938728;29;20069;-88
2020/12/29 08:52:01;;;;;;;23.42;14.77;;;5.10;99.90;;;;;;4923004;29;20031;-87
2020/12/29 08:54:37;;;;;;;17.55;10.15;;;5.00;99.90;;;;;;4922960;28;20423;-87
2020/12/29 08:57:05;;;;;;;14.98;10.23;;;5.00;99.90;;;;;;4939137;29;20034;-87
2020/12/29 08:59:39;;;;;;;16.48;11.38;;;5.10;99.90;;;;;;4962007;28;20011;-85
2020/12/29 09:02:08;;;;;;;19.45;12.68;;;5.00;99.90;;;;;;4973790;28;20031;-87
2020/12/29 09:04:41;;;;;;;24.15;15.85;;;4.90;99.90;;;;;;4948390;28;20031;-87
2020/12/29 09:07:12;;;;;;;25.13;14.73;;;4.50;99.90;;;;;;4959131;28;20155;-87
2020/12/29 09:09:53;;;;;;;19.33;12.45;;;4.40;99.90;;;;;;4957871;28;20041;-87
2020/12/29 09:12:19;;;;;;;21.33;13.05;;;4.60;99.90;;;;;;4974752;28;20481;-88
2020/12/29 09:14:54;;;;;;;20.90;12.75;;;4.60;99.90;;;;;;4957539;28;20042;-87
2020/12/29 09:17:20;;;;;;;;;;;4.80;99.90;;;;;;4957703;28;20573;-88
2020/12/29 09:20:05;;;;;;;24.05;14.38;;;4.90;99.90;;;;;;4941937;28;19949;-86
2020/12/29 09:22:31;;;;;;;27.00;14.75;;;4.80;99.90;;;;;;4974071;28;20113;-88
2020/12/29 09:24:56;;;;;;;21.33;13.00;;;4.70;99.90;;;;;;4973979;28;20460;-86
2020/12/29 09:27:29;;;;;;;24.30;12.73;;;4.70;99.90;;;;;;4974298;28;20493;-88
2020/12/29 09:30:03;;;;;;;25.00;14.98;;;4.90;99.90;;;;;;4941549;28;20074;-86
2020/12/29 09:32:30;;;;;;;26.17;15.27;;;5.00;99.90;;;;;;4943215;28;20453;-87
2020/12/29 09:35:24;;;;;;;26.38;14.43;;;4.90;99.90;;;;;;4941792;28;20054;-87
2020/12/29 09:37:47;;;;;;;27.80;14.75;;;4.60;99.90;;;;;;4960226;28;20038;-86
2020/12/29 09:40:14;;;;;;;26.65;15.38;;;4.70;99.90;;;;;;4957361;28;20046;-87
2020/12/29 09:42:40;;;;;;;24.65;14.15;;;4.60;99.90;;;;;;4944517;28;20035;-86
2020/12/29 09:45:08;;;;;;;25.40;15.10;;;4.60;99.90;;;;;;4964424;28;20038;-87
2020/12/29 09:47:35;;;;;;;26.92;14.18;;;4.50;99.90;;;;;;4946564;28;20065;-86
2020/12/29 09:50:00;;;;;;;24.73;13.70;;;4.50;99.90;;;;;;4957114;28;20125;-85
2020/12/29 09:52:37;;;;;;;27.02;16.65;;;4.70;99.90;;;;;;4972926;28;20058;-88
2020/12/29 09:55:04;;;;;;;26.50;15.82;;;4.90;99.90;;;;;;4989688;28;20027;-87
2020/12/29 09:57:30;;;;;;;18.70;12.85;;;4.90;99.90;;;;;;4957020;28;20525;-87
2020/12/29 09:59:58;;;;;;;21.88;14.30;;;5.00;99.90;;;;;;4957147;28;20035;-87
2020/12/29 10:02:24;;;;;;;22.02;13.57;;;5.00;99.90;;;;;;4941123;28;20031;-88
2020/12/29 10:05:10;;;;;;;22.33;13.05;;;4.80;99.90;;;;;;4941016;28;20126;-88
2020/12/29 10:07:35;;;;;;;23.77;14.77;;;5.00;99.90;;;;;;4958532;28;20555;-86
2020/12/29 10:10:01;;;;;;;22.90;14.38;;;4.80;99.90;;;;;;4960712;28;20022;-88
2020/12/29 10:12:27;;;;;;;22.13;14.20;;;4.90;99.90;;;;;;4960268;28;20171;-87
2020/12/29 10:14:53;;;;;;;29.65;17.27;;;5.10;99.90;;;;;;4978090;28;20031;-86
2020/12/29 10:17:26;;;;;;;25.15;15.55;;;5.30;99.90;;;;;;4960163;28;20069;-86
2020/12/29 10:19:51;;;;;;;29.35;16.55;;;5.30;99.90;;;;;;4960337;28;20122;-87
2020/12/29 10:22:19;;;;;;;24.75;15.85;;;5.60;99.90;;;;;;4959933;28;20074;-85
2020/12/29 10:24:46;;;;;;;26.23;15.90;;;5.30;99.90;;;;;;4960481;28;20039;-86
2020/12/29 10:27:12;;;;;;;24.25;15.27;;;5.40;99.90;;;;;;4960126;28;20077;-85
2020/12/29 10:29:40;;;;;;;25.15;15.23;;;5.50;99.90;;;;;;4943998;28;20034;-86
2020/12/29 10:32:05;;;;;;;28.77;16.48;;;5.60;99.90;;;;;;4943912;28;20039;-85
2020/12/29 10:34:33;;;;;;;25.77;15.98;;;5.70;99.90;;;;;;4959359;28;20468;-87
2020/12/29 10:36:59;;;;;;;23.42;13.52;;;5.80;99.90;;;;;;4960139;28;20031;-86
2020/12/29 10:39:25;;;;;;;21.90;13.57;;;5.80;99.90;;;;;;4960039;28;20153;-85
2020/12/29 10:41:50;;;;;;;20.70;12.80;;;6.00;99.90;;;;;;4976299;28;20434;-84
2020/12/29 10:44:16;;;;;;;20.63;11.98;;;5.90;99.90;;;;;;4959648;28;20503;-85
2020/12/29 10:46:47;;;;;;;18.83;10.98;;;6.00;99.90;;;;;;4976209;28;20118;-85
2020/12/29 10:49:13;;;;;;;21.52;11.20;;;6.00;99.90;;;;;;4943103;28;20074;-86
2020/12/29 10:51:39;;;;;;;17.63;10.70;;;5.70;99.90;;;;;;4959602;28;20066;-86
2020/12/29 10:54:05;;;;;;;19.98;11.13;;;5.60;99.90;;;;;;4959536;28;20039;-86
2020/12/29 10:56:31;;;;;;;14.90;9.80;;;5.70;99.90;;;;;;4991608;28;20030;-86
2020/12/29 10:58:57;;;;;;;18.45;10.55;;;5.70;99.90;;;;;;4959447;28;20082;-85
2020/12/29 11:01:23;;;;;;;16.88;9.85;;;5.70;99.90;;;;;;4959500;28;20035;-84
2020/12/29 11:03:50;;;;;;;15.30;9.98;;;5.80;99.90;;;;;;4976463;28;20031;-86
2020/12/29 11:06:21;;;;;;;18.80;9.52;;;5.90;99.90;;;;;;4959461;28;20027;-86
2020/12/29 11:08:48;;;;;;;14.88;7.95;;;5.70;99.90;;;;;;4977396;28;20038;-86
2020/12/29 11:11:15;;;;;;;10.65;7.63;;;5.80;99.90;;;;;;4976197;28;20519;-86
2020/12/29 11:13:42;;;;;;;13.70;7.70;;;5.70;99.90;;;;;;4959959;28;20062;-86
2020/12/29 11:16:17;;;;;;;9.77;6.13;;;5.70;99.90;;;;;;4959115;28;20031;-86
2020/12/29 11:18:47;;;;;;;12.18;6.40;;;5.90;99.90;;;;;;4959747;28;20031;-85
2020/12/29 11:21:17;;;;;;;10.60;6.65;;;6.00;99.90;;;;;;4958973;28;20035;-85
2020/12/29 11:23:43;;;;;;;10.38;8.00;;;6.10;99.90;;;;;;4976268;28;20023;-86
2020/12/29 11:26:12;;;;;;;17.25;8.73;;;6.00;99.90;;;;;;4959188;28;20031;-87
2020/12/29 11:28:38;;;;;;;18.63;9.88;;;6.00;99.90;;;;;;4959106;28;20416;-86
2020/12/29 11:31:03;;;;;;;15.30;11.32;;;6.00;99.90;;;;;;4943076;28;20057;-86
2020/12/29 11:33:29;;;;;;;18.05;11.45;;;6.10;99.90;;;;;;4943166;28;20065;-85
2020/12/29 11:35:55;;;;;;;15.93;12.57;;;6.10;99.90;;;;;;4975274;28;20033;-83
2020/12/29 11:38:21;;;;;;;19.05;12.80;;;6.10;99.90;;;;;;4974616;28;20445;-92
2020/12/29 11:40:47;;;;;;;19.25;13.50;;;6.10;99.90;;;;;;4960880;28;20057;-85
2020/12/29 11:43:13;;;;;;;20.17;13.18;;;6.30;99.90;;;;;;4959256;28;20027;-86
2020/12/29 11:45:39;;;;;;;21.10;13.48;;;6.40;99.90;;;;;;4974903;28;20181;-87
2020/12/29 11:48:05;;;;;;;19.58;14.15;;;6.50;99.90;;;;;;4944417;28;20050;-86
2020/12/29 11:50:31;;;;;;;22.17;14.48;;;6.50;99.90;;;;;;4958866;28;20142;-86
2020/12/29 11:52:57;;;;;;;19.48;14.35;;;6.70;99.90;;;;;;4942722;28;20150;-85
2020/12/29 11:55:22;;;;;;;25.25;16.17;;;6.70;99.90;;;;;;4958139;28;20488;-85
2020/12/29 11:57:48;;;;;;;34.40;21.42;;;6.70;99.90;;;;;;4958191;28;20026;-86
2020/12/29 12:00:14;;;;;;;29.77;20.13;;;6.80;99.90;;;;;;4958134;28;20041;-85
2020/12/29 12:02:39;;;;;;;26.80;17.75;;;6.80;99.90;;;;;;4958379;28;20039;-85
2020/12/29 12:05:05;;;;;;;26.17;16.45;;;6.80;99.90;;;;;;4958256;28;20091;-85
2020/12/29 12:07:31;;;;;;;24.75;16.45;;;6.90;99.90;;;;;;4958396;28;20134;-85
2020/12/29 12:09:56;;;;;;;26.60;16.08;;;7.00;99.90;;;;;;4926632;28;20026;-85
2020/12/29 12:12:22;;;;;;;34.63;20.02;;;7.00;99.90;;;;;;4958116;28;20404;-87
2020/12/29 12:14:48;;;;;;;33.58;21.63;;;7.00;99.90;;;;;;4958669;28;20486;-86
2020/12/29 12:17:14;;;;;;;33.67;21.60;;;7.20;99.90;;;;;;4962819;28;20031;-85
2020/12/29 12:19:40;;;;;;;33.65;20.83;;;6.90;99.90;;;;;;4949239;28;20369;-85
2020/12/29 12:22:05;;;;;;;30.65;20.42;;;6.90;99.90;;;;;;4983985;28;20034;-87
2020/12/29 12:24:31;;;;;;;29.65;19.35;;;6.70;99.90;;;;;;4966675;28;20027;-85
2020/12/29 12:26:57;;;;;;;28.58;20.27;;;6.50;99.90;;;;;;4982020;28;20027;-86
2020/12/29 12:29:22;;;;;;;29.90;20.50;;;6.70;99.90;;;;;;4941690;28;20043;-85
2020/12/29 12:31:48;;;;;;;31.58;19.88;;;6.70;99.90;;;;;;4958753;28;20465;-86
2020/12/29 12:34:14;;;;;;;35.15;22.65;;;6.70;99.90;;;;;;4957929;28;20061;-84
2020/12/29 12:36:39;;;;;;;36.40;21.73;;;6.80;99.90;;;;;;4958199;28;20051;-88
2020/12/29 12:39:06;;;;;;;38.60;24.48;;;6.80;99.90;;;;;;4958210;28;20046;-86
2020/12/29 12:41:32;;;;;;;42.40;25.73;;;6.60;99.90;;;;;;4958338;28;20057;-87
2020/12/29 12:43:58;;;;;;;33.17;20.83;;;6.60;99.90;;;;;;4957747;28;20046;-85